Time;durP1;ratioP1;P1;durP2;ratioP2;P2;SDS_P1;SDS_P2;PMS_P1;PMS_P2;Temp;Humidity;BMP_temperature;BMP_pressure;BME280_temperature;BME280_humidity;BME280_pressure;Samples;Min_cycle;Max_cycle;Signal;HPM_P1;HPM_P2
2023/07/12 00:02:18;;;;;;;9.98;5.35;;;;;;;23.12;88.06;99596.13;5245467;28;20457;-72
2023/07/12 00:04:48;;;;;;;9.03;5.57;;;;;;;23.12;88.47;99605.94;5240048;28;20100;-72
2023/07/12 00:07:21;;;;;;;11.52;5.90;;;;;;;23.14;87.99;99587.94;5244257;28;20292;-73
2023/07/12 00:09:51;;;;;;;9.23;5.22;;;;;;;23.11;88.79;99591.78;5251170;28;20529;-73
2023/07/12 00:12:21;;;;;;;10.73;5.40;;;;;;;23.00;89.29;99600.00;5245389;28;20056;-72
2023/07/12 00:14:52;;;;;;;10.03;5.33;;;;;;;22.97;89.63;99605.66;5248351;28;20270;-72
2023/07/12 00:17:22;;;;;;;9.73;5.53;;;;;;;22.99;89.37;99598.34;5233684;28;20681;-72
2023/07/12 00:19:52;;;;;;;9.65;5.40;;;;;;;22.95;89.99;99599.66;5244852;28;20281;-72
2023/07/12 00:22:23;;;;;;;9.60;5.37;;;;;;;22.87;90.46;99591.56;5241216;28;20021;-73
2023/07/12 00:24:54;;;;;;;9.40;5.45;;;;;;;22.92;90.06;99591.13;5247178;28;20314;-73
2023/07/12 00:27:24;;;;;;;10.30;5.00;;;;;;;22.88;90.49;99589.75;5243435;28;20048;-73
2023/07/12 00:29:54;;;;;;;9.23;6.00;;;;;;;22.79;91.28;99572.88;5248093;28;20989;-73
2023/07/12 00:32:24;;;;;;;12.50;6.00;;;;;;;22.81;91.21;99584.22;5242369;28;20266;-73
2023/07/12 00:34:55;;;;;;;9.97;5.60;;;;;;;22.80;91.20;99571.88;5249410;28;20030;-72
2023/07/12 00:37:25;;;;;;;9.27;5.47;;;;;;;22.85;91.32;99571.44;5330242;22;20357;-77
2023/07/12 00:39:55;;;;;;;9.17;5.53;;;;;;;22.70;92.56;99567.66;5233807;28;20764;-77
2023/07/12 00:42:37;;;;;;;13.60;5.50;;;;;;;22.90;90.80;99561.97;5236544;28;20634;-77
2023/07/12 00:45:12;;;;;;;8.13;4.97;;;;;;;22.87;90.89;99554.25;5238005;28;20270;-75
2023/07/12 00:47:44;;;;;;;9.40;5.00;;;;;;;22.85;91.17;99556.25;5235307;28;20079;-77
2023/07/12 00:50:19;;;;;;;11.52;5.60;;;;;;;22.76;92.53;99561.69;5220737;28;20106;-75
2023/07/12 00:52:51;;;;;;;11.38;6.50;;;;;;;22.69;93.56;99561.47;5221961;28;20024;-75
2023/07/12 00:55:58;;;;;;;11.30;5.72;;;;;;;22.72;92.35;99565.66;5226207;28;20675;-77
2023/07/12 00:58:37;;;;;;;9.82;5.97;;;;;;;22.66;92.96;99566.28;5225365;28;20033;-77
2023/07/12 01:01:08;;;;;;;10.63;5.60;;;;;;;22.66;93.01;99568.09;5226798;28;20036;-77
2023/07/12 01:03:42;;;;;;;8.55;5.15;;;;;;;22.59;94.26;99569.72;5227214;28;20067;-77
2023/07/12 01:06:16;;;;;;;10.43;5.75;;;;;;;22.65;93.50;99567.28;5224753;28;20115;-76
2023/07/12 01:08:46;;;;;;;8.27;5.22;;;;;;;22.63;94.10;99581.75;5229148;28;20408;-77
2023/07/12 01:11:18;;;;;;;11.57;5.35;;;;;;;22.65;93.47;99582.41;5224152;28;20017;-75
2023/07/12 01:13:49;;;;;;;10.82;5.55;;;;;;;22.65;94.35;99575.28;5222473;28;20051;-74
2023/07/12 01:16:22;;;;;;;10.73;5.47;;;;;;;22.73;93.53;99598.50;5226075;28;20075;-77
2023/07/12 01:18:52;;;;;;;9.52;5.63;;;;;;;22.76;93.78;99601.66;5229240;28;20028;-77
2023/07/12 01:21:24;;;;;;;10.97;5.67;;;;;;;22.78;93.18;99589.88;5223561;28;20036;-77
2023/07/12 01:23:54;;;;;;;10.57;5.20;;;;;;;22.81;92.89;99586.88;5223558;28;20290;-77
2023/07/12 01:26:41;;;;;;;12.88;5.63;;;;;;;22.86;92.41;99603.22;5220239;28;20078;-77
2023/07/12 01:29:12;;;;;;;9.50;5.53;;;;;;;22.83;93.01;99608.88;5225672;28;20418;-77
2023/07/12 01:31:44;;;;;;;9.00;5.72;;;;;;;22.79;92.69;99596.88;5232579;28;20397;-77
2023/07/12 01:34:16;;;;;;;12.27;5.85;;;;;;;22.73;92.69;99595.81;5229832;28;20031;-77
2023/07/12 01:36:46;;;;;;;8.90;5.53;;;;;;;22.59;93.74;99594.53;5230530;28;20082;-77
2023/07/12 01:39:16;;;;;;;10.43;5.05;;;;;;;22.82;92.39;99593.88;5228161;28;20494;-77
2023/07/12 01:41:47;;;;;;;10.27;5.77;;;;;;;22.74;92.65;99592.97;5224621;28;20079;-77
2023/07/12 01:44:17;;;;;;;9.40;5.50;;;;;;;22.65;93.50;99587.75;5220912;28;20539;-77
2023/07/12 01:46:47;;;;;;;8.70;5.10;;;;;;;22.58;93.96;99584.88;5222145;28;20478;-74
2023/07/12 01:49:18;;;;;;;7.97;4.87;;;;;;;22.42;95.67;99581.25;5221341;28;20276;-77
2023/07/12 01:51:48;;;;;;;8.50;5.22;;;;;;;22.35;95.91;99580.13;5219059;28;20299;-74
2023/07/12 01:54:19;;;;;;;8.55;4.85;;;;;;;22.21;96.03;99567.34;5219130;28;20068;-77
2023/07/12 01:56:49;;;;;;;8.23;4.90;;;;;;;22.36;94.29;99556.00;5217286;28;20027;-75
2023/07/12 01:59:19;;;;;;;7.43;3.80;;;;;;;22.75;90.18;99568.00;5221648;28;20341;-77
2023/07/12 02:01:49;;;;;;;6.40;3.37;;;;;;;23.21;87.21;99551.69;5220789;28;20052;-76
2023/07/12 02:04:20;;;;;;;7.23;3.47;;;;;;;23.49;86.90;99551.31;5221251;28;20291;-77
2023/07/12 02:06:50;;;;;;;8.53;3.83;;;;;;;23.94;84.74;99551.84;5216230;28;20284;-74
2023/07/12 02:09:20;;;;;;;7.80;3.50;;;;;;;24.15;84.60;99541.50;5223814;28;20282;-76
2023/07/12 02:11:50;;;;;;;5.23;3.23;;;;;;;24.34;83.59;99538.53;5217308;28;20660;-76
2023/07/12 02:14:21;;;;;;;7.57;3.90;;;;;;;24.40;83.50;99534.34;5222548;28;20352;-78
2023/07/12 02:16:51;;;;;;;7.47;3.80;;;;;;;24.48;83.76;99537.00;5224459;28;20282;-77
2023/07/12 02:19:21;;;;;;;7.10;3.60;;;;;;;24.48;83.62;99535.19;5218383;28;20290;-77
2023/07/12 02:21:51;;;;;;;7.75;3.40;;;;;;;24.51;83.69;99528.66;5219437;28;20127;-77
2023/07/12 02:24:22;;;;;;;6.33;3.50;;;;;;;24.53;84.53;99546.25;5221830;28;20028;-77
2023/07/12 02:26:52;;;;;;;6.47;3.70;;;;;;;24.60;84.41;99557.94;5220772;28;20053;-77
2023/07/12 02:29:22;;;;;;;6.13;3.37;;;;;;;24.61;84.51;99559.63;5221840;28;20457;-77
2023/07/12 02:31:54;;;;;;;5.67;3.43;;;;;;;24.61;84.76;99554.25;5220988;28;20753;-77
2023/07/12 02:34:24;;;;;;;7.22;3.58;;;;;;;24.55;85.61;99564.78;5222370;28;20024;-75
2023/07/12 02:36:55;;;;;;;7.63;3.43;;;;;;;24.54;85.80;99555.09;5218085;28;20422;-74
2023/07/12 02:39:25;;;;;;;9.83;4.20;;;;;;;24.51;86.48;99568.75;5223771;28;20279;-75
2023/07/12 02:41:55;;;;;;;6.80;3.70;;;;;;;24.50;86.30;99561.72;5222035;28;20287;-77
2023/07/12 02:44:25;;;;;;;9.18;3.53;;;;;;;24.52;86.32;99565.94;5222335;28;20059;-76
2023/07/12 02:46:56;;;;;;;6.13;3.30;;;;;;;24.50;86.86;99567.91;5220901;28;20024;-77
2023/07/12 02:49:26;;;;;;;6.97;3.37;;;;;;;24.55;86.73;99576.28;5221861;28;20040;-76
2023/07/12 02:51:56;;;;;;;7.32;3.58;;;;;;;24.51;87.16;99598.97;5219588;28;20275;-77
2023/07/12 02:54:27;;;;;;;7.15;3.42;;;;;;;24.66;85.93;99617.88;5221886;28;20032;-77
2023/07/12 02:56:58;;;;;;;6.60;3.53;;;;;;;24.37;85.42;99622.84;5221389;28;20029;-77
2023/07/12 02:59:28;;;;;;;6.25;3.50;;;;;;;24.11;86.47;99639.00;5225825;28;21294;-78
2023/07/12 03:01:58;;;;;;;9.10;3.50;;;;;;;23.79;87.65;99638.84;5221824;28;20024;-77
2023/07/12 03:04:29;;;;;;;8.07;3.53;;;;;;;23.46;88.98;99650.34;5225570;28;20024;-77
2023/07/12 03:07:00;;;;;;;7.03;3.40;;;;;;;23.30;89.73;99650.25;5218448;28;20470;-77
2023/07/12 03:09:30;;;;;;;6.80;3.40;;;;;;;23.24;90.29;99653.56;5221493;28;20032;-77
2023/07/12 03:12:01;;;;;;;8.63;3.47;;;;;;;22.98;91.79;99649.97;5222125;28;20055;-76
2023/07/12 03:14:31;;;;;;;7.05;3.65;;;;;;;22.87;92.83;99652.88;5220777;28;20030;-77
2023/07/12 03:17:02;;;;;;;8.93;3.35;;;;;;;22.86;93.59;99661.03;5221527;28;20033;-77
2023/07/12 03:19:36;;;;;;;8.15;3.33;;;;;;;22.88;93.40;99659.88;5222614;28;20590;-77
2023/07/12 03:22:06;;;;;;;7.47;3.53;;;;;;;22.76;93.67;99669.13;5221231;28;20094;-77
2023/07/12 03:24:36;;;;;;;7.37;3.50;;;;;;;22.66;95.03;99677.34;5223286;28;20055;-77
2023/07/12 03:27:06;;;;;;;11.37;3.73;;;;;;;22.64;95.56;99679.31;5221278;28;20282;-77
2023/07/12 03:29:37;;;;;;;8.65;3.47;;;;;;;22.65;95.63;99691.66;5223341;28;20289;-77
2023/07/12 03:32:08;;;;;;;8.00;3.75;;;;;;;22.56;96.19;99700.56;5221426;28;20074;-77
2023/07/12 03:34:38;;;;;;;7.03;3.20;;;;;;;22.56;96.58;99703.22;5222957;28;20032;-77
2023/07/12 03:37:11;;;;;;;6.10;3.63;;;;;;;22.59;96.60;99701.09;5219986;28;20033;-77
2023/07/12 03:39:41;;;;;;;5.75;3.65;;;;;;;22.51;95.91;99703.69;5222383;28;20271;-77
2023/07/12 03:42:12;;;;;;;7.13;3.30;;;;;;;22.28;98.38;99697.03;5221342;28;20567;-77
2023/07/12 03:44:42;;;;;;;7.45;3.20;;;;;;;21.93;100.00;99704.94;5221322;28;20286;-77
2023/07/12 03:47:13;;;;;;;10.07;3.58;;;;;;;21.94;100.00;99695.16;5220132;28;20111;-74
2023/07/12 03:49:43;;;;;;;6.80;3.10;;;;;;;21.81;100.00;99692.84;5222491;28;20029;-77
2023/07/12 03:52:13;;;;;;;8.43;3.30;;;;;;;21.70;100.00;99692.16;5222758;28;20282;-77
2023/07/12 03:54:43;;;;;;;7.73;3.10;;;;;;;21.75;100.00;99697.91;5223413;28;20390;-77
2023/07/12 03:57:14;;;;;;;6.80;3.15;;;;;;;21.59;100.00;99705.63;5221769;28;20276;-76
2023/07/12 03:59:44;;;;;;;9.85;3.45;;;;;;;21.52;100.00;99712.47;5223386;28;20342;-77
2023/07/12 04:02:15;;;;;;;6.25;3.40;;;;;;;21.47;100.00;99712.09;5220268;28;20052;-77
2023/07/12 04:04:45;;;;;;;7.07;3.20;;;;;;;21.45;100.00;99716.72;5222046;28;20128;-77
2023/07/12 04:07:15;;;;;;;5.63;2.73;;;;;;;21.53;100.00;99719.47;5221849;28;20035;-77
2023/07/12 04:09:46;;;;;;;9.50;3.05;;;;;;;21.50;100.00;99717.97;5224259;28;20312;-77
2023/07/12 04:12:16;;;;;;;5.53;2.77;;;;;;;21.54;100.00;99734.47;5221610;28;20060;-78
2023/07/12 04:14:46;;;;;;;6.17;2.70;;;;;;;21.58;100.00;99744.66;5225030;28;20292;-77
2023/07/12 04:17:17;;;;;;;9.93;3.30;;;;;;;21.49;100.00;99755.31;5221000;28;20727;-77
2023/07/12 04:19:47;;;;;;;5.57;2.72;;;;;;;21.58;100.00;99765.13;5226707;28;20036;-77
2023/07/12 04:22:17;;;;;;;6.53;2.50;;;;;;;21.40;100.00;99775.63;5220634;28;20507;-77
2023/07/12 04:24:49;;;;;;;6.00;2.70;;;;;;;21.30;100.00;99777.47;5223500;28;20033;-74
2023/07/12 04:27:20;;;;;;;8.05;2.85;;;;;;;21.29;100.00;99782.91;5219438;28;20768;-77
2023/07/12 04:29:50;;;;;;;6.50;2.60;;;;;;;21.29;100.00;99780.25;5223805;28;20024;-75
2023/07/12 04:32:20;;;;;;;6.93;2.70;;;;;;;21.29;100.00;99780.25;5223451;28;20025;-77
2023/07/12 04:34:50;;;;;;;9.88;2.60;;;;;;;21.14;100.00;99786.97;5222400;28;20375;-77
2023/07/12 04:37:21;;;;;;;6.75;2.95;;;;;;;21.04;100.00;99786.97;5223550;28;20024;-77
2023/07/12 04:39:51;;;;;;;6.50;2.40;;;;;;;21.11;100.00;99803.22;5224582;28;20032;-77
2023/07/12 04:42:22;;;;;;;4.83;2.27;;;;;;;21.31;100.00;99805.75;5222616;28;20040;-77
2023/07/12 04:44:52;;;;;;;8.90;2.40;;;;;;;21.44;100.00;99816.06;5220954;28;20360;-77
2023/07/12 04:47:22;;;;;;;7.90;2.53;;;;;;;21.79;100.00;99811.03;5223453;28;20028;-77
2023/07/12 04:49:53;;;;;;;7.00;2.33;;;;;;;21.98;100.00;99824.28;5224176;28;20736;-77
2023/07/12 04:52:23;;;;;;;3.78;1.95;;;;;;;21.99;100.00;99833.94;5222190;28;20271;-77
2023/07/12 04:54:57;;;;;;;5.85;2.30;;;;;;;21.94;100.00;99826.38;5226512;28;20028;-77
2023/07/12 04:57:27;;;;;;;6.80;2.38;;;;;;;21.96;100.00;99826.25;5225694;28;20067;-77
2023/07/12 04:59:58;;;;;;;5.07;2.30;;;;;;;21.67;100.00;99831.63;5221529;28;20063;-77
2023/07/12 05:02:28;;;;;;;7.78;2.42;;;;;;;21.75;100.00;99834.41;5224272;28;20037;-77
2023/07/12 05:04:58;;;;;;;6.00;2.22;;;;;;;21.82;100.00;99848.84;5223475;28;20059;-77
2023/07/12 05:07:31;;;;;;;5.45;2.17;;;;;;;21.80;100.00;99845.47;5230281;28;20024;-78
2023/07/12 05:10:03;;;;;;;5.55;2.38;;;;;;;21.69;100.00;99850.09;5226024;28;20494;-77
2023/07/12 05:12:35;;;;;;;4.25;2.20;;;;;;;21.88;100.00;99850.91;5228947;28;20108;-77
2023/07/12 05:15:07;;;;;;;3.47;2.03;;;;;;;21.82;100.00;99854.16;5227772;28;20029;-77
2023/07/12 05:17:39;;;;;;;3.92;2.10;;;;;;;21.89;100.00;99867.72;5226951;28;20028;-77
2023/07/12 05:20:12;;;;;;;5.10;2.17;;;;;;;21.76;100.00;99870.66;5226772;28;20051;-75
2023/07/12 05:22:43;;;;;;;5.53;2.17;;;;;;;21.83;100.00;99885.09;5229846;28;20026;-77
2023/07/12 05:25:14;;;;;;;5.88;2.15;;;;;;;21.86;100.00;99895.44;5225891;28;20068;-77
2023/07/12 05:27:44;;;;;;;5.22;2.00;;;;;;;21.72;100.00;99906.53;5229375;28;20064;-76
2023/07/12 05:30:15;;;;;;;4.25;2.00;;;;;;;21.73;100.00;99913.53;5226703;28;20025;-77
2023/07/12 05:32:45;;;;;;;3.45;1.80;;;;;;;21.59;100.00;99931.69;5224999;28;20079;-77
2023/07/12 05:35:15;;;;;;;6.07;2.08;;;;;;;21.47;100.00;99941.63;5226578;28;20490;-76
2023/07/12 05:37:48;;;;;;;5.50;2.10;;;;;;;21.50;100.00;99949.34;5228582;28;20025;-77
2023/07/12 05:40:18;;;;;;;5.43;1.77;;;;;;;21.55;100.00;99955.06;5219125;28;20406;-75
2023/07/12 05:42:48;;;;;;;3.58;1.50;;;;;;;21.48;100.00;99958.41;5214658;28;20024;-74
2023/07/12 05:45:18;;;;;;;4.07;1.57;;;;;;;21.37;100.00;99953.25;5223316;28;20032;-76
2023/07/12 05:47:50;;;;;;;3.55;1.50;;;;;;;21.37;100.00;99937.28;5227962;28;20290;-75
2023/07/12 05:50:20;;;;;;;4.15;1.40;;;;;;;21.14;100.00;99938.47;5220134;28;20033;-77
2023/07/12 05:52:51;;;;;;;4.07;1.40;;;;;;;21.28;100.00;99933.63;5229083;28;20017;-77
2023/07/12 05:55:21;;;;;;;2.67;1.27;;;;;;;21.46;100.00;99909.84;5227012;28;20040;-77
2023/07/12 05:57:51;;;;;;;3.03;1.50;;;;;;;21.62;100.00;99934.97;5224522;28;20647;-77
2023/07/12 06:00:22;;;;;;;3.53;1.50;;;;;;;21.77;100.00;99946.00;5226138;28;20094;-77
2023/07/12 06:02:52;;;;;;;4.93;1.20;;;;;;;21.90;100.00;99950.06;5228187;28;20877;-77
2023/07/12 06:05:22;;;;;;;2.97;1.35;;;;;;;21.70;100.00;99967.00;5228015;28;20051;-77
2023/07/12 06:07:53;;;;;;;2.72;1.20;;;;;;;21.88;100.00;99970.66;5228758;28;20035;-77
2023/07/12 06:10:23;;;;;;;3.50;1.50;;;;;;;21.89;100.00;99974.19;5228512;28;20025;-77
2023/07/12 06:12:54;;;;;;;2.20;1.10;;;;;;;21.72;100.00;99975.69;5230332;28;20540;-77
2023/07/12 06:15:24;;;;;;;3.23;1.23;;;;;;;21.85;100.00;99968.28;5226711;28;20025;-77
2023/07/12 06:17:54;;;;;;;3.45;1.20;;;;;;;21.73;100.00;99968.56;5229016;28;20271;-77
2023/07/12 06:20:25;;;;;;;1.95;1.02;;;;;;;21.86;100.00;99969.97;5228642;28;20567;-78
2023/07/12 06:22:55;;;;;;;2.47;1.05;;;;;;;21.98;100.00;99975.97;5229620;28;20028;-77
2023/07/12 06:25:25;;;;;;;1.85;0.93;;;;;;;22.10;100.00;99981.00;5227611;28;20040;-77
2023/07/12 06:27:56;;;;;;;2.00;0.90;;;;;;;22.25;99.95;99979.59;5230350;28;20024;-77
2023/07/12 06:30:26;;;;;;;3.55;0.90;;;;;;;22.42;97.80;99976.22;5229523;28;20666;-76
2023/07/12 06:32:56;;;;;;;2.65;1.10;;;;;;;22.74;96.17;99979.38;5229574;28;20048;-77
2023/07/12 06:35:26;;;;;;;2.13;0.87;;;;;;;22.71;95.22;99983.16;5225164;28;20024;-77
2023/07/12 06:37:57;;;;;;;4.13;1.10;;;;;;;22.38;96.63;99985.50;5263292;22;20310;-75
2023/07/12 06:40:27;;;;;;;2.17;0.90;;;;;;;22.27;95.85;99979.47;5237787;28;20291;-75
2023/07/12 06:42:58;;;;;;;1.20;0.77;;;;;;;22.20;97.20;99988.97;5237650;28;20120;-75
2023/07/12 06:45:29;;;;;;;1.55;0.80;;;;;;;22.21;96.98;99988.00;5240884;28;20328;-75
2023/07/12 06:47:59;;;;;;;2.45;0.85;;;;;;;22.41;94.80;99987.03;5239071;28;20063;-75
2023/07/12 06:50:30;;;;;;;3.43;0.90;;;;;;;22.17;94.75;99982.13;5238997;28;20039;-75
2023/07/12 06:53:00;;;;;;;1.67;0.70;;;;;;;22.32;90.63;99974.53;5238754;28;20802;-75
2023/07/12 06:55:30;;;;;;;3.17;0.90;;;;;;;22.25;90.84;99963.63;5240373;28;20275;-75
2023/07/12 06:58:00;;;;;;;2.17;0.87;;;;;;;22.06;89.70;99962.81;5237803;28;20283;-75
2023/07/12 07:00:31;;;;;;;1.57;0.60;;;;;;;22.00;87.75;99969.53;5239005;28;20632;-75
2023/07/12 07:03:01;;;;;;;2.08;0.65;;;;;;;22.06;88.03;99968.16;5239192;28;20525;-76
2023/07/12 07:05:32;;;;;;;1.10;0.57;;;;;;;22.03;87.17;99968.41;5239214;28;20028;-75
2023/07/12 07:08:03;;;;;;;0.80;0.50;;;;;;;22.00;86.95;99958.91;5238684;28;20629;-75
2023/07/12 07:10:34;;;;;;;1.65;0.80;;;;;;;22.15;86.58;99957.47;5240268;28;20107;-75
2023/07/12 07:13:05;;;;;;;1.48;0.60;;;;;;;22.19;84.65;99958.03;5238635;28;20024;-75
2023/07/12 07:15:35;;;;;;;2.53;0.80;;;;;;;22.35;84.87;99955.59;5240221;28;20036;-75
2023/07/12 07:18:07;;;;;;;1.13;0.60;;;;;;;22.28;84.51;99957.19;5238542;28;20090;-75
2023/07/12 07:20:39;;;;;;;2.03;0.75;;;;;;;22.44;84.67;99968.09;5240307;28;20094;-75
2023/07/12 07:23:10;;;;;;;1.77;0.60;;;;;;;22.56;87.49;99970.44;5237517;28;20035;-75
2023/07/12 07:25:40;;;;;;;1.48;0.77;;;;;;;22.67;84.67;99958.78;5238150;28;20502;-75
2023/07/12 07:28:11;;;;;;;1.10;0.68;;;;;;;22.77;85.79;99966.59;5237549;28;20067;-75
2023/07/12 07:30:41;;;;;;;1.80;0.60;;;;;;;23.14;84.59;99966.59;5237421;28;20039;-75
2023/07/12 07:33:11;;;;;;;3.53;0.80;;;;;;;24.25;82.39;99966.06;5236967;28;20021;-76
2023/07/12 07:35:42;;;;;;;1.17;0.50;;;;;;;25.76;76.31;99960.63;5238198;28;20051;-76
2023/07/12 07:38:13;;;;;;;1.10;0.70;;;;;;;26.55;74.79;99970.53;5236044;28;20274;-74
2023/07/12 07:40:43;;;;;;;1.67;0.85;;;;;;;27.05;73.25;99989.88;5239367;28;20629;-75
2023/07/12 07:43:14;;;;;;;0.82;0.50;;;;;;;27.86;67.55;99980.44;5237080;28;20036;-74
2023/07/12 07:45:44;;;;;;;1.27;0.60;;;;;;;28.06;66.49;99982.47;5239065;28;20036;-74
2023/07/12 07:48:15;;;;;;;2.10;0.40;;;;;;;29.05;63.38;99984.75;5236449;28;20462;-74
2023/07/12 07:50:45;;;;;;;3.22;0.60;;;;;;;29.10;63.25;99993.09;5237062;28;20278;-74
2023/07/12 07:53:17;;;;;;;1.67;0.68;;;;;;;30.37;60.59;99999.56;5236627;28;20111;-74
2023/07/12 07:55:48;;;;;;;1.75;0.57;;;;;;;30.05;60.26;100000.13;5238232;28;20504;-74
2023/07/12 07:58:20;;;;;;;1.10;0.47;;;;;;;30.75;58.51;100000.97;5238452;28;20044;-74
2023/07/12 08:00:52;;;;;;;1.25;0.50;;;;;;;30.29;58.57;99994.31;5239143;28;20031;-74
2023/07/12 08:03:22;;;;;;;16.40;2.00;;;;;;;29.04;59.49;99993.84;5240191;28;20096;-75
2023/07/12 08:05:52;;;;;;;0.80;0.40;;;;;;;30.41;57.53;99984.69;5242591;28;20549;-73
2023/07/12 08:08:23;;;;;;;1.20;0.40;;;;;;;30.61;56.72;99980.28;5241266;28;20028;-74
2023/07/12 08:10:53;;;;;;;1.73;0.60;;;;;;;30.70;55.85;99982.66;5236872;28;20119;-74
2023/07/12 08:13:24;;;;;;;1.03;0.50;;;;;;;30.96;56.04;99983.66;5238015;28;20166;-74
2023/07/12 08:15:55;;;;;;;1.00;0.50;;;;;;;29.43;56.93;99986.28;5237497;28;20035;-75
2023/07/12 08:18:26;;;;;;;3.75;0.85;;;;;;;30.25;nan;99983.06;5237252;28;20059;-73
2023/07/12 08:20:57;;;;;;;1.23;0.57;;;;;;;31.31;53.87;99976.38;5237809;28;20048;-72
2023/07/12 08:23:30;;;;;;;1.40;0.60;;;;;;;30.02;56.45;99992.34;5238187;28;20298;-74
2023/07/12 08:26:00;;;;;;;1.33;0.32;;;;;;;31.01;55.64;99983.88;5237651;28;20024;-74
2023/07/12 08:28:30;;;;;;;0.83;0.40;;;;;;;32.13;52.74;99986.84;5238407;28;20077;-74
2023/07/12 08:31:00;;;;;;;1.10;0.50;;;;;;;31.14;52.99;99981.28;5237534;28;20028;-74
2023/07/12 08:33:31;;;;;;;0.60;0.40;;;;;;;31.58;53.04;99995.22;5236135;28;20455;-74
2023/07/12 08:36:01;;;;;;;2.38;0.40;;;;;;;31.00;54.25;99994.91;5235578;28;20027;-73
2023/07/12 08:38:32;;;;;;;1.13;0.50;;;;;;;29.97;55.41;99998.34;5234766;28;20056;-73
2023/07/12 08:41:16;;;;;;;2.67;0.65;;;;;;;31.57;53.80;99998.09;5240632;28;20315;-73
2023/07/12 08:43:47;;;;;;;0.65;0.40;;;;;;;31.36;52.95;100006.34;5239451;28;20107;-74
2023/07/12 08:46:25;;;;;;;0.50;0.38;;;;;;;30.61;55.58;100012.69;5236755;28;20126;-74
2023/07/12 08:49:00;;;;;;;2.22;0.60;;;;;;;32.92;51.67;100007.47;5238610;28;20031;-73
2023/07/12 08:51:35;;;;;;;1.98;0.50;;;;;;;31.26;52.79;100022.06;5240111;28;20028;-74
2023/07/12 08:54:16;;;;;;;0.82;0.40;;;;;;;30.14;54.52;100042.09;5240410;28;20024;-73
2023/07/12 08:56:46;;;;;;;3.90;0.50;;;;;;;31.30;52.62;100017.94;5242693;28;20127;-73
2023/07/12 08:59:17;;;;;;;0.50;0.40;;;;;;;32.31;51.07;100016.84;5240911;28;20111;-73
2023/07/12 09:01:52;;;;;;;2.55;0.55;;;;;;;30.73;53.67;100025.44;5241699;28;20517;-71
2023/07/12 09:04:25;;;;;;;1.02;0.50;;;;;;;30.04;55.54;100031.63;5240795;28;20028;-73
2023/07/12 09:06:59;;;;;;;1.15;0.50;;;;;;;28.66;58.16;100045.19;5242061;28;20028;-72
2023/07/12 09:09:35;;;;;;;1.33;0.52;;;;;;;27.72;59.81;100049.22;5241288;28;20055;-75
2023/07/12 09:12:22;;;;;;;3.30;0.55;;;;;;;27.00;61.43;100054.81;5241291;28;20394;-75
2023/07/12 09:14:57;;;;;;;1.35;0.40;;;;;;;26.95;62.32;100067.88;5238232;28;20033;-74
2023/07/12 09:17:32;;;;;;;0.77;0.47;;;;;;;26.45;62.42;100070.91;5241374;28;20116;-75
2023/07/12 09:20:03;;;;;;;0.73;0.50;;;;;;;25.96;63.66;100066.47;5238426;28;20035;-73
2023/07/12 09:22:37;;;;;;;2.03;0.60;;;;;;;26.47;62.43;100066.19;5242002;28;20036;-75
2023/07/12 09:25:20;;;;;;;1.25;0.40;;;;;;;28.32;58.94;100063.63;5238554;28;20504;-72
2023/07/12 09:27:50;;;;;;;1.08;0.45;;;;;;;28.04;59.51;100073.22;5237304;28;20043;-72
2023/07/12 09:30:25;;;;;;;1.02;0.50;;;;;;;27.45;60.44;100089.09;5240965;28;22958;-74
2023/07/12 09:32:56;;;;;;;2.72;0.57;;;;;;;27.52;60.54;100074.81;5240640;28;20059;-74
2023/07/12 09:35:46;;;;;;;0.77;0.40;;;;;;;28.65;59.27;100097.31;5241469;28;20039;-74
2023/07/12 09:38:23;;;;;;;1.42;0.60;;;;;;;28.92;57.91;100089.53;5239662;28;20100;-75
2023/07/12 09:40:54;;;;;;;1.83;0.43;;;;;;;29.02;57.33;100089.25;5237881;28;20024;-75
2023/07/12 09:43:27;;;;;;;2.17;0.60;;;;;;;29.59;56.72;100083.09;5240708;28;20039;-75
2023/07/12 09:46:21;;;;;;;3.78;0.55;;;;;;;30.59;55.06;100080.34;5241506;28;20501;-74
2023/07/12 09:49:06;;;;;;;1.15;0.60;;;;;;;30.14;54.89;100083.41;5237235;28;20028;-75
2023/07/12 09:51:49;;;;;;;0.98;0.60;;;;;;;29.85;56.11;100085.28;5239655;28;20025;-75
2023/07/12 09:54:35;;;;;;;1.35;0.63;;;;;;;29.10;56.88;100086.50;5237108;28;20024;-74
2023/07/12 09:57:17;;;;;;;1.85;0.52;;;;;;;29.12;59.15;100089.84;5240436;28;20032;-73
2023/07/12 10:00:05;;;;;;;1.27;0.70;;;;;;;28.94;58.53;100086.66;5238251;28;20551;-73
2023/07/12 10:02:44;;;;;;;1.83;0.70;;;;;;;29.70;57.66;100085.31;5241053;28;20036;-74
2023/07/12 10:05:21;;;;;;;3.00;0.52;;;;;;;28.80;57.80;100098.19;5239154;28;20028;-74
2023/07/12 10:07:55;;;;;;;1.80;0.80;;;;;;;28.20;59.46;100102.69;5236927;28;20024;-74
2023/07/12 10:10:33;;;;;;;1.45;0.80;;;;;;;29.66;58.17;100083.19;5235102;28;20024;-75
2023/07/12 10:13:26;;;;;;;1.00;0.75;;;;;;;30.08;55.88;100089.53;5240442;28;20028;-75
2023/07/12 10:15:58;;;;;;;2.97;0.98;;;;;;;28.19;59.51;100098.31;5238707;28;20025;-75
2023/07/12 10:18:34;;;;;;;2.30;0.95;;;;;;;28.07;59.82;100096.19;5236059;28;20344;-74
2023/07/12 10:21:07;;;;;;;3.08;0.85;;;;;;;28.20;60.09;100096.44;5239496;28;20024;-75
2023/07/12 10:23:52;;;;;;;2.20;0.93;;;;;;;27.98;60.20;100100.78;5239523;28;20040;-73
2023/07/12 10:26:23;;;;;;;2.13;1.17;;;;;;;27.66;60.96;100090.19;5240413;28;20326;-74
2023/07/12 10:28:58;;;;;;;0.97;0.77;;;;;;;27.85;62.05;100092.47;5240085;28;20496;-73
2023/07/12 10:31:31;;;;;;;2.95;1.08;;;;;;;27.56;60.43;100105.66;5237736;28;20279;-74
2023/07/12 10:34:19;;;;;;;8.38;1.50;;;;;;;27.19;61.94;100105.44;5240521;28;20020;-74
2023/07/12 10:36:54;;;;;;;1.58;1.00;;;;;;;27.03;62.04;100100.06;5234901;28;20027;-74
2023/07/12 10:39:27;;;;;;;1.65;0.93;;;;;;;26.97;62.38;100127.56;5238243;28;20657;-74
2023/07/12 10:42:05;;;;;;;1.70;1.00;;;;;;;26.42;62.72;100132.91;5238996;28;20032;-74
2023/07/12 10:44:46;;;;;;;1.55;0.90;;;;;;;26.38;63.11;100120.84;5239993;28;20063;-74
2023/07/12 10:47:19;;;;;;;3.47;1.00;;;;;;;27.05;62.58;100121.34;5238073;28;20507;-73
2023/07/12 10:50:02;;;;;;;1.92;0.88;;;;;;;27.24;62.21;100119.19;5239399;28;20401;-72
2023/07/12 10:52:52;;;;;;;2.15;1.13;;;;;;;27.16;61.61;100135.31;5239708;28;20039;-73
2023/07/12 10:55:47;;;;;;;2.08;1.10;;;;;;;26.85;61.24;100145.03;5239769;28;20031;-74
2023/07/12 10:58:21;;;;;;;2.50;1.20;;;;;;;26.86;61.46;100138.66;5239554;28;20032;-74
2023/07/12 11:00:59;;;;;;;3.70;1.48;;;;;;;27.15;60.84;100157.78;5235913;28;20024;-74
2023/07/12 11:03:40;;;;;;;4.30;1.90;;;;;;;26.87;61.75;100150.22;5239105;28;20025;-74
2023/07/12 11:06:21;;;;;;;4.82;1.30;;;;;;;26.87;63.78;100152.91;5238913;28;20032;-74
2023/07/12 11:09:01;;;;;;;2.35;1.20;;;;;;;26.95;61.89;100145.69;5235335;28;20024;-73
2023/07/12 11:11:50;;;;;;;2.17;1.10;;;;;;;27.01;60.03;100153.06;5237977;28;20056;-74
2023/07/12 11:14:26;;;;;;;1.75;1.00;;;;;;;26.72;59.29;100148.38;5235887;28;20028;-74
2023/07/12 11:17:21;;;;;;;2.00;1.00;;;;;;;26.66;58.58;100143.69;5239340;28;20040;-73
2023/07/12 11:20:04;;;;;;;3.58;1.23;;;;;;;26.68;58.68;100141.69;5235575;28;20024;-74
2023/07/12 11:23:07;;;;;;;3.88;1.27;;;;;;;26.48;59.33;100151.03;5238524;28;20028;-73
2023/07/12 11:25:57;;;;;;;1.38;1.00;;;;;;;26.80;61.12;100147.34;5236429;28;20472;-74
2023/07/12 11:28:40;;;;;;;2.72;1.58;;;;;;;27.21;59.52;100149.06;5237488;28;20036;-74
2023/07/12 11:31:26;;;;;;;3.17;1.60;;;;;;;27.39;59.92;100144.31;5237943;28;20086;-74
2023/07/12 11:34:18;;;;;;;1.63;1.17;;;;;;;27.35;60.45;100147.50;5235871;28;20047;-74
2023/07/12 11:36:53;;;;;;;1.83;1.23;;;;;;;27.11;59.56;100150.25;5237902;28;20037;-72
2023/07/12 11:39:24;;;;;;;;;;;;;;;27.02;60.28;100145.84;5236955;28;20077;-72
2023/07/12 11:42:08;;;;;;;3.10;1.80;;;;;;;26.22;61.51;100150.28;5235865;28;19920;-74
2023/07/12 11:44:38;;;;;;;2.85;1.88;;;;;;;26.05;60.85;100146.75;5238814;28;20460;-74
2023/07/12 11:47:10;;;;;;;3.17;1.70;;;;;;;25.87;61.34;100148.66;5238598;28;20040;-72
2023/07/12 11:49:41;;;;;;;3.30;1.77;;;;;;;25.75;62.34;100141.03;5238415;28;20282;-73
2023/07/12 11:52:15;;;;;;;2.55;1.70;;;;;;;25.64;62.46;100147.53;5238136;28;20397;-73
2023/07/12 11:54:47;;;;;;;2.42;1.55;;;;;;;26.06;61.54;100140.38;5239132;28;20047;-74
2023/07/12 11:57:17;;;;;;;4.70;1.77;;;;;;;25.91;62.41;100127.75;5238050;28;20486;-72